KPOB/POB METAR and TAF weather

Enter ICAO airport designator
Station Type Date Time Source
KPOB METAR 2021/07/28 20:55 UTC NOAA

KPOB 282055Z 22008KT 6SM -TSRA FEW020 SCT035 BKN045 BKN080 BKN200 30/24 A2992 RMK AO2A SLPNO WND DATA ESTMD ALSTG ESTMD P0005


Station Type Date Time Source
KPOB Decoded METAR 2021/07/28 20:55 UTC NOAA

Pope Air Force Base, NC, United States (KPOB) 35-10N 079-02W 61M
Jul 28, 2021 - 04:55 PM EDT / 2021.07.28 2055 UTC
Wind: from the SW (220 degrees) at 9 MPH (8 KT):0
Visibility: 6 mile(s):0
Sky conditions: mostly cloudy
Weather: light rain with thunder
Precipitation last hour: 0.05 inches
Temperature: 86 F (30 C)
Heat index: 95.0 F (35.0 C):1
Dew Point: 75 F (24 C)
Relative Humidity: 70%
Pressure (altimeter): 29.92 in. Hg (1013 hPa)
ob: KPOB 282055Z 22008KT 6SM -TSRA FEW020 SCT035 BKN045 BKN080 BKN200 30/24 A2992 RMK AO2A SLPNO WND DATA ESTMD ALSTG ESTMD P0005
cycle: 21

Station Type Date Time Source
KPOB TAF 2021/07/28 23:26 UTC NOAA

TAF COR KPOB 280015Z 2723/2823 23008KT 9999 FEW025 SCT045 BKN120 BKN200 QNH2994INS
TEMPO 2723/2802 VRB15G25KT 3200 TSRA SCT015 BKN025CB BKN045 BKN120 BKN200
TEMPO 2800/2802 VRB20G35KT 1600 TSRA SCT005 BKN012 BKN035 OVC080
BECMG 2810/2811 24003KT 8000 BR BKN010 BKN020 QNH2997INS
BECMG 2813/2814 23006KT 9999 NSW SCT015 BKN025 QNH2995INS
BECMG 2818/2819 20008KT 8000 -SHRA SCT035 QNH2992INS TX33/2723Z TN24/2810Z

Example: see airport list